Time;durP1;ratioP1;P1;durP2;ratioP2;P2;SDS_P1;SDS_P2;PMS_P1;PMS_P2;Temp;Humidity;BMP_temperature;BMP_pressure;BME280_temperature;BME280_humidity;BME280_pressure;Samples;Min_cycle;Max_cycle;Signal;HPM_P1;HPM_P2
2021/07/09 00:01:34;;;;;;;4.23;3.63;;;;;;;18.73;76.91;101176.72;5033148;28;20286;-77
2021/07/09 00:04:00;;;;;;;4.30;3.90;;;;;;;18.73;76.71;101174.00;5031561;28;20207;-78
2021/07/09 00:06:27;;;;;;;4.60;3.80;;;;;;;18.72;76.74;101177.69;5035243;28;20292;-78
2021/07/09 00:08:53;;;;;;;5.13;3.90;;;;;;;18.70;76.80;101174.28;5028644;28;20552;-78
2021/07/09 00:11:20;;;;;;;5.63;3.40;;;;;;;18.67;76.62;101176.41;5034701;28;20231;-78
2021/07/09 00:13:47;;;;;;;4.83;4.27;;;;;;;18.67;76.72;101182.66;5030508;28;20228;-78
2021/07/09 00:16:15;;;;;;;7.23;3.90;;;;;;;18.65;76.74;101179.22;5031929;28;20218;-78
2021/07/09 00:18:43;;;;;;;4.87;3.60;;;;;;;18.61;76.74;101183.22;5029616;28;20577;-78
2021/07/09 00:21:10;;;;;;;5.43;3.37;;;;;;;18.58;77.03;101183.44;5035437;28;20598;-78
2021/07/09 00:23:38;;;;;;;6.03;3.63;;;;;;;18.56;76.95;101177.31;5033473;28;20213;-77
2021/07/09 00:26:05;;;;;;;4.90;4.40;;;;;;;18.51;77.38;101184.97;5029756;28;20219;-77
2021/07/09 00:28:32;;;;;;;7.07;4.10;;;;;;;18.47;77.23;101186.22;5025761;28;20213;-77
2021/07/09 00:30:58;;;;;;;4.33;3.67;;;;;;;18.43;77.38;101174.00;5033829;28;20213;-78
2021/07/09 00:33:25;;;;;;;5.40;3.77;;;;;;;18.39;77.54;101169.88;5026777;28;20648;-79
2021/07/09 00:35:53;;;;;;;4.10;3.80;;;;;;;18.39;77.71;101157.25;5023285;28;20202;-78
2021/07/09 00:38:19;;;;;;;4.67;3.43;;;;;;;18.39;77.65;101148.28;5034639;28;20209;-79
2021/07/09 00:40:46;;;;;;;4.20;3.80;;;;;;;18.39;77.84;101148.28;5033501;28;20214;-79
2021/07/09 00:43:13;;;;;;;5.33;3.40;;;;;;;18.39;77.82;101148.28;5040597;28;20667;-78
2021/07/09 00:45:40;;;;;;;4.37;3.80;;;;;;;18.39;77.82;101146.44;5031458;28;20213;-79
2021/07/09 00:48:07;;;;;;;4.97;4.10;;;;;;;18.40;77.81;101141.91;5024859;28;20224;-79
2021/07/09 00:50:33;;;;;;;6.30;3.53;;;;;;;18.37;77.73;101151.13;5028245;28;20214;-78
2021/07/09 00:53:01;;;;;;;4.90;3.70;;;;;;;18.35;77.88;101147.69;5030733;28;20638;-78
2021/07/09 00:55:28;;;;;;;5.87;3.27;;;;;;;18.35;77.96;101152.25;5034317;28;20249;-78
2021/07/09 00:57:55;;;;;;;4.90;3.67;;;;;;;18.36;78.04;101156.66;5027262;28;20206;-78
2021/07/09 01:00:24;;;;;;;4.60;3.77;;;;;;;18.36;78.13;101156.66;5028362;28;20201;-78
2021/07/09 01:02:50;;;;;;;6.40;4.00;;;;;;;18.34;78.00;101150.53;5030884;28;20232;-77
2021/07/09 01:05:18;;;;;;;5.03;3.53;;;;;;;18.31;77.94;101153.50;5029939;28;20583;-77
2021/07/09 01:07:45;;;;;;;4.73;3.57;;;;;;;18.29;78.25;101158.16;5029180;28;20209;-77
2021/07/09 01:10:15;;;;;;;8.93;3.53;;;;;;;18.25;77.95;101163.00;5026860;28;20212;-77
2021/07/09 01:12:44;;;;;;;9.50;3.50;;;;;;;18.22;78.06;101159.72;5031917;28;20236;-78
2021/07/09 01:15:13;;;;;;;8.30;3.80;;;;;;;18.20;78.30;101150.91;5030885;28;20235;-78
2021/07/09 01:17:40;;;;;;;4.90;3.50;;;;;;;18.20;78.44;101157.16;5028932;28;20227;-78
2021/07/09 01:20:09;;;;;;;8.83;4.80;;;;;;;18.19;78.49;101151.88;5025974;28;20724;-77
2021/07/09 01:22:38;;;;;;;10.13;4.37;;;;;;;18.17;78.69;101159.25;5030741;28;20575;-77
2021/07/09 01:25:08;;;;;;;7.77;3.90;;;;;;;18.16;78.77;101162.94;5029020;28;20245;-77
2021/07/09 01:27:36;;;;;;;5.43;3.80;;;;;;;18.17;78.95;101167.34;5022442;28;20206;-78
2021/07/09 01:30:06;;;;;;;8.83;4.77;;;;;;;18.16;78.99;101165.63;5027046;28;20209;-78
2021/07/09 01:32:32;;;;;;;7.80;4.30;;;;;;;18.15;79.01;101153.97;5031041;28;20236;-77
2021/07/09 01:34:59;;;;;;;8.03;4.20;;;;;;;18.17;79.18;101167.34;5029994;28;20236;-76
2021/07/09 01:37:25;;;;;;;7.90;4.30;;;;;;;18.17;79.16;101161.94;5027541;28;20213;-78
2021/07/09 01:39:52;;;;;;;6.63;4.77;;;;;;;18.18;79.02;101174.44;5032022;28;20206;-78
2021/07/09 01:42:20;;;;;;;5.53;4.57;;;;;;;18.18;79.06;101169.03;5032296;28;20250;-78
2021/07/09 01:44:47;;;;;;;7.80;4.17;;;;;;;18.17;78.88;101162.78;5034188;28;20205;-78
2021/07/09 01:47:13;;;;;;;5.97;4.10;;;;;;;18.18;78.76;101164.50;5033894;28;20211;-78
2021/07/09 01:49:52;;;;;;;7.00;4.87;;;;;;;18.18;78.59;101164.50;5031920;28;20582;-78
2021/07/09 01:52:19;;;;;;;6.67;4.27;;;;;;;18.19;78.55;101166.22;5032106;28;20237;-78
2021/07/09 01:54:46;;;;;;;6.27;5.00;;;;;;;18.19;78.45;101159.97;5031371;28;20235;-79
2021/07/09 01:57:13;;;;;;;9.10;5.13;;;;;;;18.19;78.36;101166.22;5032672;28;20214;-78
2021/07/09 01:59:41;;;;;;;6.47;4.67;;;;;;;18.19;78.36;101168.91;5029066;28;20204;-78
2021/07/09 02:02:08;;;;;;;8.00;5.23;;;;;;;18.19;78.44;101165.38;5036238;28;20737;-78
2021/07/09 02:04:44;;;;;;;10.73;5.27;;;;;;;18.18;78.31;101164.50;5035089;28;20204;-78
2021/07/09 02:07:10;;;;;;;11.57;5.43;;;;;;;18.16;78.38;101173.72;5021341;28;20566;-78
2021/07/09 02:09:37;;;;;;;9.03;4.87;;;;;;;18.15;78.38;101180.09;5033687;28;20209;-78
2021/07/09 02:12:05;;;;;;;11.63;5.23;;;;;;;18.13;78.36;101182.06;5030993;28;20315;-78
2021/07/09 02:14:31;;;;;;;8.03;5.43;;;;;;;18.12;78.24;101180.34;5037569;28;20226;-78
2021/07/09 02:16:59;;;;;;;8.73;5.03;;;;;;;18.10;78.34;101164.31;5036721;28;20227;-77
2021/07/09 02:19:26;;;;;;;6.57;5.43;;;;;;;18.09;78.40;101168.00;5035170;28;20691;-77
2021/07/09 02:21:55;;;;;;;8.20;4.70;;;;;;;18.06;78.46;101153.94;5036844;28;20240;-77
2021/07/09 02:24:22;;;;;;;7.13;4.50;;;;;;;18.05;78.50;101153.09;5036141;28;20209;-77
2021/07/09 02:26:48;;;;;;;11.70;4.83;;;;;;;18.03;78.36;101149.66;5036768;28;20210;-78
2021/07/09 02:29:15;;;;;;;15.00;5.27;;;;;;;18.01;78.67;101157.88;5031741;28;20205;-78
2021/07/09 02:31:41;;;;;;;7.67;4.80;;;;;;;17.97;78.63;101151.03;5035981;28;20220;-78
2021/07/09 02:34:09;;;;;;;13.97;5.20;;;;;;;17.94;78.75;101148.59;5036821;28;20224;-79
2021/07/09 02:36:36;;;;;;;8.83;5.23;;;;;;;17.93;78.84;101143.34;5035797;28;20219;-78
2021/07/09 02:39:04;;;;;;;16.00;5.60;;;;;;;17.90;79.00;101144.50;5034089;28;20215;-79
2021/07/09 02:41:31;;;;;;;9.67;5.97;;;;;;;17.88;79.02;101142.91;5035684;28;20234;-78
2021/07/09 02:43:57;;;;;;;10.97;6.00;;;;;;;17.87;79.23;101142.06;5026281;28;20577;-79
2021/07/09 02:46:24;;;;;;;10.83;6.53;;;;;;;17.86;79.26;101142.19;5032160;28;20214;-78
2021/07/09 02:48:50;;;;;;;9.77;6.97;;;;;;;17.83;79.12;101143.31;5028783;28;20703;-78
2021/07/09 02:51:20;;;;;;;14.70;6.67;;;;;;;17.81;79.23;101145.28;5032944;28;20230;-78
2021/07/09 02:53:47;;;;;;;11.20;6.63;;;;;;;17.79;79.46;101138.31;5028568;28;20686;-77
2021/07/09 02:56:13;;;;;;;9.87;7.27;;;;;;;17.76;79.47;101139.41;5032074;28;20229;-78
2021/07/09 02:58:40;;;;;;;18.43;7.57;;;;;;;17.74;79.64;101136.00;5028879;28;20215;-78
2021/07/09 03:01:06;;;;;;;10.03;7.30;;;;;;;17.73;79.68;101144.22;5028665;28;20608;-78
2021/07/09 03:03:33;;;;;;;11.23;7.40;;;;;;;17.71;79.84;101143.50;5032094;28;20219;-77
2021/07/09 03:05:59;;;;;;;12.47;8.93;;;;;;;17.70;80.04;101142.66;5035040;28;20655;-77
2021/07/09 03:08:27;;;;;;;15.77;8.53;;;;;;;17.71;80.25;101135.44;5031716;28;20211;-78
2021/07/09 03:10:54;;;;;;;15.57;8.27;;;;;;;17.70;80.31;101126.50;5032313;28;20213;-78
2021/07/09 03:13:20;;;;;;;10.00;8.93;;;;;;;17.71;80.38;101128.19;5033438;28;20212;-77
2021/07/09 03:15:47;;;;;;;12.20;9.20;;;;;;;17.69;80.70;101127.47;5036271;28;20227;-78
2021/07/09 03:18:13;;;;;;;11.73;8.57;;;;;;;17.70;80.63;101129.19;5032681;28;20204;-78
2021/07/09 03:20:40;;;;;;;10.87;9.10;;;;;;;17.69;80.72;101122.94;5027932;28;20212;-77
2021/07/09 03:23:06;;;;;;;12.47;8.10;;;;;;;17.68;80.77;101117.69;5032838;28;20265;-77
2021/07/09 03:25:34;;;;;;;14.97;9.53;;;;;;;17.67;80.83;101126.75;5034028;28;20201;-78
2021/07/09 03:28:01;;;;;;;13.43;8.90;;;;;;;17.65;80.74;101126.03;5036834;28;20217;-78
2021/07/09 03:30:27;;;;;;;16.50;10.20;;;;;;;17.64;80.95;101118.91;5027510;28;20220;-77
2021/07/09 03:32:54;;;;;;;13.30;9.20;;;;;;;17.63;81.13;101109.94;5033870;28;20240;-77
2021/07/09 03:35:20;;;;;;;18.53;10.53;;;;;;;17.63;81.15;101095.63;5034351;28;20224;-77
2021/07/09 03:37:47;;;;;;;11.57;9.87;;;;;;;17.64;81.19;101100.91;5034904;28;20205;-77
2021/07/09 03:40:14;;;;;;;12.83;9.97;;;;;;;17.63;81.35;101095.63;5033925;28;20569;-77
2021/07/09 03:42:42;;;;;;;12.27;10.30;;;;;;;17.64;81.25;101098.22;5033867;28;20232;-78
2021/07/09 03:45:09;;;;;;;12.10;10.03;;;;;;;17.64;81.50;101102.75;5033045;28;20212;-78
2021/07/09 03:47:36;;;;;;;11.23;10.00;;;;;;;17.63;81.47;101091.09;5027244;28;20212;-78
2021/07/09 03:50:03;;;;;;;15.13;11.63;;;;;;;17.63;81.42;101093.78;5033600;28;20583;-78
2021/07/09 03:52:29;;;;;;;14.23;11.60;;;;;;;17.63;81.80;101096.47;5031216;28;20221;-78
2021/07/09 03:54:56;;;;;;;19.73;12.60;;;;;;;17.63;81.81;101090.25;5034490;28;20229;-78
2021/07/09 03:57:22;;;;;;;14.40;13.00;;;;;;;17.64;81.94;101091.97;5026372;28;20206;-78
2021/07/09 03:59:50;;;;;;;14.70;13.10;;;;;;;17.64;82.06;101083.91;5028083;28;20233;-78
2021/07/09 04:02:16;;;;;;;17.93;14.60;;;;;;;17.64;82.08;101091.97;5029782;28;20228;-78
2021/07/09 04:04:43;;;;;;;16.13;14.43;;;;;;;17.63;82.34;101093.78;5034176;28;20201;-77
2021/07/09 04:07:09;;;;;;;22.50;14.50;;;;;;;17.63;82.39;101091.09;5034573;28;20215;-78
2021/07/09 04:09:36;;;;;;;20.27;15.80;;;;;;;17.64;82.57;101091.97;5035085;28;20208;-77
2021/07/09 04:12:03;;;;;;;26.87;15.40;;;;;;;17.65;82.64;101089.16;5031148;28;20222;-78
2021/07/09 04:14:29;;;;;;;19.40;14.17;;;;;;;17.67;82.89;101094.41;5031848;28;20229;-77
2021/07/09 04:16:57;;;;;;;24.23;15.50;;;;;;;17.68;82.98;101099.69;5030191;28;20581;-77
2021/07/09 04:19:24;;;;;;;16.10;14.60;;;;;;;17.68;82.89;101096.97;5033250;28;20209;-77
2021/07/09 04:21:50;;;;;;;21.53;15.07;;;;;;;17.68;83.06;101096.13;5031916;28;20714;-78
2021/07/09 04:24:17;;;;;;;18.17;14.60;;;;;;;17.70;83.19;101096.84;5026210;28;20205;-78
2021/07/09 04:26:44;;;;;;;19.40;15.30;;;;;;;17.73;83.33;101109.22;5031837;28;20205;-78
2021/07/09 04:29:10;;;;;;;20.63;15.90;;;;;;;17.74;83.39;101106.34;5029330;28;20656;-78
2021/07/09 04:31:37;;;;;;;22.33;16.27;;;;;;;17.75;83.37;101102.69;5031154;28;20229;-78
2021/07/09 04:34:05;;;;;;;18.20;15.77;;;;;;;17.78;83.38;101096.19;5031185;28;20581;-78
2021/07/09 04:36:31;;;;;;;18.40;14.33;;;;;;;17.79;83.14;101096.03;5031424;28;20612;-78
2021/07/09 04:38:58;;;;;;;17.50;15.07;;;;;;;17.80;83.54;101089.69;5031289;28;20216;-78
2021/07/09 04:41:24;;;;;;;18.47;14.40;;;;;;;17.82;83.44;101092.25;5033690;28;20225;-78
2021/07/09 04:43:51;;;;;;;22.07;15.23;;;;;;;17.82;83.14;101085.00;5029154;28;20220;-77
2021/07/09 04:46:17;;;;;;;19.37;15.47;;;;;;;17.84;83.59;101087.56;5031272;28;20220;-77
2021/07/09 04:48:44;;;;;;;15.73;14.13;;;;;;;17.86;83.44;101091.84;5032021;28;20216;-77
2021/07/09 04:51:13;;;;;;;21.73;14.93;;;;;;;17.87;83.53;101085.47;5031909;28;20222;-79
2021/07/09 04:53:39;;;;;;;16.47;14.73;;;;;;;17.87;83.50;101090.84;5032882;28;20198;-77
2021/07/09 04:56:06;;;;;;;22.33;15.47;;;;;;;17.88;83.39;101087.19;5028915;28;20229;-78
2021/07/09 04:58:32;;;;;;;17.03;15.43;;;;;;;17.90;83.62;101096.00;5031861;28;20209;-78
2021/07/09 05:00:59;;;;;;;21.50;15.07;;;;;;;17.90;83.58;101093.28;5031551;28;20229;-78
2021/07/09 05:03:25;;;;;;;17.67;15.73;;;;;;;17.92;83.57;101104.75;5025768;28;20210;-78
2021/07/09 05:05:52;;;;;;;19.80;14.93;;;;;;;17.93;83.59;101109.16;5022077;28;20209;-78
2021/07/09 05:08:20;;;;;;;21.70;15.50;;;;;;;17.93;83.61;101101.09;5029734;28;20216;-77
2021/07/09 05:10:47;;;;;;;25.20;17.23;;;;;;;17.94;83.47;101094.72;5030422;28;20205;-77
2021/07/09 05:13:13;;;;;;;21.17;16.10;;;;;;;17.96;83.53;101092.75;5028605;28;20209;-77
2021/07/09 05:15:40;;;;;;;19.00;16.80;;;;;;;17.97;83.52;101097.16;5024643;28;20228;-78
2021/07/09 05:18:06;;;;;;;18.17;16.07;;;;;;;17.98;83.58;101089.91;5029848;28;20217;-78
2021/07/09 05:20:33;;;;;;;28.87;16.63;;;;;;;17.99;83.56;101097.88;5030404;28;20201;-78
2021/07/09 05:22:59;;;;;;;25.40;16.83;;;;;;;17.99;83.53;101092.47;5031412;28;20229;-78
2021/07/09 05:25:27;;;;;;;20.30;16.97;;;;;;;18.00;83.57;101088.78;5033902;28;20201;-78
2021/07/09 05:27:54;;;;;;;21.27;17.13;;;;;;;18.01;83.51;101089.66;5024297;28;20652;-78
2021/07/09 05:30:21;;;;;;;25.47;16.80;;;;;;;18.00;83.47;101091.50;5027097;28;20665;-78
2021/07/09 05:32:47;;;;;;;20.07;17.97;;;;;;;18.00;83.57;101094.19;5021955;28;20222;-78
2021/07/09 05:35:18;;;;;;;19.40;16.73;;;;;;;18.00;83.71;101102.28;5026500;28;20236;-80
2021/07/09 05:37:45;;;;;;;19.60;16.20;;;;;;;18.02;83.58;101104.84;5028516;28;20205;-77
2021/07/09 05:40:12;;;;;;;24.00;17.93;;;;;;;18.02;83.66;101105.69;5030742;28;20210;-77
2021/07/09 05:42:40;;;;;;;21.17;18.30;;;;;;;18.02;83.60;101103.00;5028789;28;20233;-77
2021/07/09 05:45:08;;;;;;;21.47;18.83;;;;;;;18.03;83.64;101107.41;5024461;28;20208;-78
2021/07/09 05:47:34;;;;;;;22.37;19.17;;;;;;;18.04;83.69;101108.25;5028272;28;20260;-77
2021/07/09 05:50:01;;;;;;;22.40;18.13;;;;;;;18.05;83.82;101104.56;5026111;28;20221;-76
2021/07/09 05:52:28;;;;;;;23.17;18.23;;;;;;;18.07;83.69;101113.38;5028949;28;20228;-77
2021/07/09 05:54:54;;;;;;;26.93;19.00;;;;;;;18.09;83.92;101115.94;5028934;28;20209;-77
2021/07/09 05:57:20;;;;;;;23.37;17.90;;;;;;;18.08;83.80;101115.09;5026131;28;20216;-77
2021/07/09 05:59:48;;;;;;;23.60;19.20;;;;;;;18.08;83.96;101117.78;5028536;28;20201;-76
2021/07/09 06:02:15;;;;;;;24.70;17.63;;;;;;;18.08;83.87;101114.25;5024964;28;20221;-77
2021/07/09 06:04:41;;;;;;;21.93;19.37;;;;;;;18.07;84.02;101112.53;5029324;28;20338;-76
2021/07/09 06:07:12;;;;;;;21.50;18.83;;;;;;;18.07;84.05;101113.38;5025938;28;20195;-76
2021/07/09 06:09:39;;;;;;;20.00;17.83;;;;;;;18.06;83.84;101110.81;5026484;28;21455;-76
2021/07/09 06:12:06;;;;;;;31.40;19.83;;;;;;;18.07;84.13;101099.91;5021602;28;20233;-76
2021/07/09 06:14:32;;;;;;;24.37;19.57;;;;;;;18.07;84.15;101097.22;5022918;28;20223;-75
2021/07/09 06:17:00;;;;;;;24.57;19.57;;;;;;;18.09;84.35;101105.16;5023655;28;20226;-76
2021/07/09 06:19:27;;;;;;;26.57;19.30;;;;;;;18.10;84.47;101105.00;5024214;28;20218;-76
2021/07/09 06:21:53;;;;;;;21.03;18.83;;;;;;;18.13;84.79;101107.44;5024644;28;20717;-76
2021/07/09 06:24:20;;;;;;;22.17;18.93;;;;;;;18.15;84.73;101110.00;5028731;28;20204;-76
2021/07/09 06:26:47;;;;;;;24.10;20.33;;;;;;;18.17;84.78;101113.41;5026425;28;20215;-75
2021/07/09 06:29:13;;;;;;;19.63;17.73;;;;;;;18.17;84.69;101114.28;5032738;28;20214;-76
2021/07/09 06:31:40;;;;;;;20.73;18.33;;;;;;;18.19;84.70;101115.00;5031358;28;20245;-74
2021/07/09 06:34:08;;;;;;;20.90;17.93;;;;;;;18.19;84.70;101112.28;5021306;28;20210;-76
2021/07/09 06:36:35;;;;;;;19.57;17.73;;;;;;;18.17;84.66;101108.88;5029223;28;20619;-77
2021/07/09 06:39:01;;;;;;;22.87;17.57;;;;;;;18.18;84.73;101112.44;5031943;28;20221;-77
2021/07/09 06:41:28;;;;;;;19.83;17.80;;;;;;;18.19;84.68;101119.53;5025306;28;20598;-77
2021/07/09 06:43:56;;;;;;;21.20;17.67;;;;;;;18.20;84.62;101121.25;5030550;28;20217;-77
2021/07/09 06:46:23;;;;;;;19.43;17.47;;;;;;;18.19;84.77;101133.00;5039350;28;20204;-76
2021/07/09 06:48:50;;;;;;;20.03;18.10;;;;;;;18.19;84.90;101128.47;5035779;28;20221;-78
2021/07/09 06:51:18;;;;;;;20.27;18.30;;;;;;;18.19;84.87;101123.09;5048458;28;20229;-77
2021/07/09 06:53:44;;;;;;;23.13;19.47;;;;;;;18.19;84.90;101131.16;5041238;28;20204;-77
2021/07/09 06:56:11;;;;;;;23.57;19.77;;;;;;;18.19;84.88;101127.63;5035547;28;20230;-77
2021/07/09 06:58:37;;;;;;;22.47;20.10;;;;;;;18.16;84.67;101133.28;5039351;28;20592;-78
2021/07/09 07:01:04;;;;;;;21.80;19.60;;;;;;;18.14;84.76;101132.56;5039281;28;20210;-79
2021/07/09 07:03:31;;;;;;;23.37;20.57;;;;;;;18.12;84.95;101132.69;5035966;28;20628;-79
2021/07/09 07:05:57;;;;;;;23.27;19.73;;;;;;;18.11;84.96;101133.66;5039026;28;20198;-78
2021/07/09 07:08:26;;;;;;;20.87;18.27;;;;;;;18.13;85.08;101133.53;5032580;28;20220;-78
2021/07/09 07:10:54;;;;;;;21.20;19.00;;;;;;;18.11;85.14;101124.72;5038683;28;20246;-78
2021/07/09 07:13:21;;;;;;;22.47;19.00;;;;;;;18.11;85.09;101136.34;5037008;28;20216;-79
2021/07/09 07:15:48;;;;;;;20.87;18.13;;;;;;;18.11;85.22;101135.50;5036789;28;20225;-77
2021/07/09 07:18:15;;;;;;;21.20;18.20;;;;;;;18.09;85.22;101138.38;5037639;28;20204;-78
2021/07/09 07:20:43;;;;;;;21.20;18.20;;;;;;;18.09;85.29;101140.22;5031007;28;20218;-79
2021/07/09 07:23:10;;;;;;;21.20;19.03;;;;;;;18.08;85.36;101133.97;5018982;28;20230;-79
2021/07/09 07:25:39;;;;;;;21.17;18.97;;;;;;;18.08;85.30;101131.25;5038092;28;20573;-79
2021/07/09 07:28:07;;;;;;;21.37;19.27;;;;;;;18.09;85.49;101126.72;5023904;28;20213;-79
2021/07/09 07:30:34;;;;;;;23.30;20.30;;;;;;;18.08;85.53;101125.88;5035917;28;20208;-79
2021/07/09 07:33:01;;;;;;;33.07;20.43;;;;;;;18.09;85.58;101129.44;5036771;28;20320;-78
2021/07/09 07:35:28;;;;;;;22.30;19.83;;;;;;;18.09;85.61;101129.44;5036728;28;20205;-78
2021/07/09 07:37:54;;;;;;;26.93;21.80;;;;;;;18.10;85.80;101131.97;5036926;28;20212;-78
2021/07/09 07:40:21;;;;;;;26.17;22.33;;;;;;;18.11;85.70;101130.13;5035766;28;20227;-77
2021/07/09 07:42:49;;;;;;;29.17;21.10;;;;;;;18.12;85.92;101132.69;5046044;28;20231;-77
2021/07/09 07:45:15;;;;;;;31.77;22.73;;;;;;;18.15;85.84;101131.56;5036714;28;20669;-78
2021/07/09 07:47:42;;;;;;;24.00;21.53;;;;;;;18.15;85.92;101137.81;5030931;28;20207;-77
2021/07/09 07:50:11;;;;;;;24.33;21.83;;;;;;;18.18;86.24;101137.53;5017286;28;20206;-78
2021/07/09 07:52:38;;;;;;;23.47;20.93;;;;;;;18.22;86.12;101138.13;5037807;28;20224;-79
2021/07/09 07:55:05;;;;;;;22.03;19.73;;;;;;;18.26;86.10;101131.50;5037220;28;20212;-78
2021/07/09 07:57:31;;;;;;;21.70;19.57;;;;;;;18.28;86.24;101141.13;5037543;28;20248;-78
2021/07/09 07:59:59;;;;;;;20.33;18.23;;;;;;;18.30;86.06;101136.47;5037293;28;20571;-78
2021/07/09 08:02:26;;;;;;;20.77;18.67;;;;;;;18.32;86.04;101136.31;5038146;28;20223;-78
2021/07/09 08:04:53;;;;;;;18.57;16.73;;;;;;;18.33;86.02;101140.72;5037772;28;20279;-79
2021/07/09 08:07:20;;;;;;;19.87;17.33;;;;;;;18.32;86.03;101130.94;5037278;28;20690;-79
2021/07/09 08:09:46;;;;;;;17.83;16.13;;;;;;;18.32;85.92;101139.03;5039117;28;20217;-79
2021/07/09 08:12:13;;;;;;;18.07;16.27;;;;;;;18.32;85.99;101136.31;5056675;28;20241;-78
2021/07/09 08:14:40;;;;;;;17.80;16.10;;;;;;;18.33;86.03;101138.88;5055187;28;20243;-79
2021/07/09 08:17:08;;;;;;;16.53;14.83;;;;;;;18.34;85.96;101137.91;5049042;28;20228;-78
2021/07/09 08:19:34;;;;;;;16.77;15.27;;;;;;;18.35;86.08;101138.75;5046948;28;20202;-78
2021/07/09 08:22:01;;;;;;;17.80;15.90;;;;;;;18.37;85.89;101136.78;5037164;28;20236;-77
2021/07/09 08:24:27;;;;;;;17.37;15.77;;;;;;;18.40;86.07;101141.91;5036855;28;20209;-78
2021/07/09 08:26:54;;;;;;;15.70;14.10;;;;;;;18.42;85.86;101145.34;5041087;28;20235;-78
2021/07/09 08:29:21;;;;;;;15.93;14.53;;;;;;;18.42;85.77;101142.63;5057317;28;20209;-78
2021/07/09 08:31:47;;;;;;;17.47;15.97;;;;;;;18.42;85.81;101136.38;5056922;28;20225;-78
2021/07/09 08:34:15;;;;;;;17.70;16.00;;;;;;;18.44;85.83;101137.09;5056142;28;20207;-78
2021/07/09 08:36:42;;;;;;;18.77;16.87;;;;;;;18.46;85.83;101141.34;5041343;28;20226;-78
2021/07/09 08:39:08;;;;;;;17.80;16.10;;;;;;;18.48;85.81;101138.50;5036970;28;20217;-79
2021/07/09 08:41:35;;;;;;;18.57;16.57;;;;;;;18.49;85.99;101140.22;5035873;28;20730;-78
2021/07/09 08:44:01;;;;;;;19.17;17.27;;;;;;;18.50;85.69;101140.09;5035966;28;20218;-76
2021/07/09 08:46:29;;;;;;;19.00;16.40;;;;;;;18.49;85.52;101146.47;5035965;28;20210;-77
2021/07/09 08:48:56;;;;;;;19.17;16.67;;;;;;;18.48;85.69;101142.06;5036309;28;20203;-78
2021/07/09 08:51:23;;;;;;;22.43;18.23;;;;;;;18.50;85.63;101140.09;5035233;28;20231;-77
2021/07/09 08:53:50;;;;;;;19.07;17.10;;;;;;;18.51;85.50;101131.00;5035280;28;20217;-78
2021/07/09 08:56:17;;;;;;;19.07;17.07;;;;;;;18.51;85.51;101133.72;5034289;28;20230;-79
2021/07/09 08:58:45;;;;;;;20.70;18.50;;;;;;;18.50;85.40;101132.00;5035156;28;20835;-78
2021/07/09 09:01:13;;;;;;;21.23;19.03;;;;;;;18.50;85.56;101128.44;5034566;28;20277;-79
2021/07/09 09:03:40;;;;;;;20.93;18.67;;;;;;;18.50;85.30;101123.91;5034967;28;20211;-78
2021/07/09 09:06:14;;;;;;;22.90;20.60;;;;;;;18.52;85.32;101127.31;5034865;28;20568;-78
2021/07/09 09:08:43;;;;;;;22.67;20.30;;;;;;;18.54;85.51;101133.44;5034973;28;20201;-77
2021/07/09 09:11:10;;;;;;;19.73;17.93;;;;;;;18.57;85.41;101138.56;5034132;28;20732;-78
2021/07/09 09:13:38;;;;;;;21.53;19.30;;;;;;;18.59;85.43;101131.22;5034052;28;20203;-77
2021/07/09 09:16:09;;;;;;;20.23;18.07;;;;;;;18.61;85.42;101131.94;5033857;28;20213;-78
2021/07/09 09:18:38;;;;;;;19.93;17.97;;;;;;;18.64;85.48;101134.34;5033813;28;20190;-77
2021/07/09 09:21:08;;;;;;;18.30;16.60;;;;;;;18.65;85.29;101127.09;5033628;28;20667;-77
2021/07/09 09:23:37;;;;;;;17.13;15.43;;;;;;;18.63;85.24;101121.03;5034046;28;20341;-77
2021/07/09 09:26:06;;;;;;;17.93;16.27;;;;;;;18.63;85.16;101124.53;5033628;28;20211;-77
2021/07/09 09:28:36;;;;;;;17.40;15.80;;;;;;;18.62;85.08;101130.97;5033215;28;20242;-79
2021/07/09 09:31:03;;;;;;;16.37;14.87;;;;;;;18.59;84.62;101131.22;5033186;28;20231;-79
2021/07/09 09:33:35;;;;;;;16.77;15.17;;;;;;;18.57;84.70;101125.09;5033528;28;20219;-78
2021/07/09 09:36:07;;;;;;;17.33;15.63;;;;;;;18.58;84.78;101123.25;5033287;28;20577;-77
2021/07/09 09:38:34;;;;;;;18.53;16.83;;;;;;;18.60;84.95;101124.00;5031114;28;20199;-76
2021/07/09 09:41:01;;;;;;;18.90;17.10;;;;;;;18.64;84.95;101122.69;5013549;28;20208;-76
2021/07/09 09:43:32;;;;;;;18.83;16.60;;;;;;;18.67;84.89;101123.28;5045779;28;20208;-77
2021/07/09 09:46:00;;;;;;;16.97;15.37;;;;;;;18.68;84.48;101124.13;5052968;28;20206;-77
2021/07/09 09:48:38;;;;;;;16.83;15.37;;;;;;;18.69;84.58;101124.00;5048541;28;20654;-76
2021/07/09 09:51:27;;;;;;;17.20;15.50;;;;;;;18.71;84.59;101124.72;5014387;28;20227;-78
2021/07/09 09:53:56;;;;;;;16.27;14.67;;;;;;;18.73;84.63;101122.75;5034212;28;20572;-77
2021/07/09 09:56:33;;;;;;;17.00;15.23;;;;;;;18.75;84.32;101127.16;5033049;28;20209;-77
2021/07/09 09:59:19;;;;;;;17.90;16.10;;;;;;;18.76;84.11;101123.47;5033076;28;20788;-76
2021/07/09 10:01:51;;;;;;;15.73;14.23;;;;;;;18.78;84.13;101124.19;5033009;28;20218;-77
2021/07/09 10:04:18;;;;;;;15.40;14.00;;;;;;;18.80;83.89;101133.00;5033904;28;20551;-77
2021/07/09 10:06:47;;;;;;;16.50;14.93;;;;;;;18.81;83.76;101126.63;5032590;28;20203;-76
2021/07/09 10:09:15;;;;;;;15.70;14.30;;;;;;;18.82;83.65;101128.28;5032648;28;20219;-77
2021/07/09 10:11:43;;;;;;;15.43;14.03;;;;;;;18.84;83.50;101123.59;5033467;28;20237;-77
2021/07/09 10:14:12;;;;;;;15.53;13.57;;;;;;;18.86;83.36;101116.22;5033215;28;20209;-77
2021/07/09 10:16:41;;;;;;;18.17;15.50;;;;;;;18.87;83.01;101117.94;5032599;28;20283;-78
2021/07/09 10:19:09;;;;;;;18.20;16.20;;;;;;;18.89;83.19;101126.75;5035901;28;20215;-79
2021/07/09 10:21:37;;;;;;;19.40;17.53;;;;;;;18.91;83.27;101125.63;5033624;28;20234;-78
2021/07/09 10:24:04;;;;;;;18.30;16.40;;;;;;;18.96;83.38;101122.50;5037658;28;20560;-78
2021/07/09 10:26:31;;;;;;;19.63;17.63;;;;;;;19.00;83.32;101126.63;5034262;28;20203;-78
2021/07/09 10:29:12;;;;;;;18.07;16.50;;;;;;;19.01;83.20;101125.63;5036978;28;20218;-77
2021/07/09 10:31:42;;;;;;;18.57;16.77;;;;;;;19.00;83.44;101134.72;5036629;28;20234;-77
2021/07/09 10:34:30;;;;;;;18.33;16.30;;;;;;;19.01;83.02;101136.44;5036806;28;20530;-77
2021/07/09 10:37:00;;;;;;;18.60;16.90;;;;;;;19.03;83.44;101139.84;5036844;28;20320;-77
2021/07/09 10:39:43;;;;;;;18.70;16.90;;;;;;;19.05;83.29;101137.84;5036661;28;20214;-77
2021/07/09 10:42:23;;;;;;;18.10;16.03;;;;;;;19.05;83.13;101140.56;5037114;28;20234;-78
2021/07/09 10:45:01;;;;;;;16.87;15.27;;;;;;;19.02;83.00;101139.00;5036263;28;20280;-77
2021/07/09 10:47:43;;;;;;;17.67;16.00;;;;;;;19.01;83.11;101141.81;5038757;28;20196;-76
2021/07/09 10:50:11;;;;;;;17.27;14.53;;;;;;;18.99;83.06;101146.50;5037098;28;20219;-77
2021/07/09 10:52:57;;;;;;;16.63;15.13;;;;;;;18.98;83.05;101142.13;5039973;28;20223;-78
2021/07/09 10:56:00;;;;;;;17.13;15.53;;;;;;;18.97;83.04;101151.22;5041079;28;20295;-78
2021/07/09 10:58:32;;;;;;;15.10;13.80;;;;;;;18.93;83.14;101138.97;5036893;28;20217;-77
2021/07/09 11:01:00;;;;;;;16.40;14.80;;;;;;;18.93;83.07;101139.84;5037038;28;20243;-77
2021/07/09 11:03:31;;;;;;;15.87;14.47;;;;;;;18.93;82.88;101139.84;5039050;28;20582;-77
2021/07/09 11:06:05;;;;;;;17.23;15.53;;;;;;;18.96;83.02;101134.16;5037587;28;20195;-78
2021/07/09 11:08:52;;;;;;;15.80;14.40;;;;;;;18.97;83.10;101135.03;5039645;28;20642;-78
2021/07/09 11:11:30;;;;;;;16.47;15.10;;;;;;;19.00;83.00;101130.16;5038896;28;20224;-78
2021/07/09 11:14:00;;;;;;;16.63;15.17;;;;;;;19.01;83.45;101129.19;5040542;28;20194;-80
2021/07/09 11:16:30;;;;;;;16.33;14.90;;;;;;;19.03;83.60;101126.34;5040709;28;20222;-78
2021/07/09 11:19:03;;;;;;;17.63;15.90;;;;;;;19.08;83.69;101126.78;5039851;28;20209;-78